createdAt,value
2018-09-08T00:00:41.801Z,61.20
2018-09-08T00:01:45.246Z,60.80
2018-09-08T00:02:48.677Z,60.40
2018-09-08T00:03:52.436Z,61.20
2018-09-08T00:04:56.061Z,62.30
2018-09-08T00:05:59.447Z,61.70
2018-09-08T00:07:08.907Z,61.70
2018-09-08T00:08:12.217Z,62.00
2018-09-08T00:09:15.751Z,61.10
2018-09-08T00:10:19.514Z,62.00
2018-09-08T00:11:23.067Z,60.90
2018-09-08T00:12:26.811Z,61.30
2018-09-08T00:13:30.174Z,62.20
2018-09-08T00:14:33.072Z,61.10
2018-09-08T00:15:42.038Z,61.40
2018-09-08T00:16:51.478Z,61.50
2018-09-08T00:18:00.380Z,61.70
2018-09-08T00:19:09.153Z,62.10
2018-09-08T00:20:17.968Z,61.90
2018-09-08T00:21:27.032Z,61.80
2018-09-08T00:22:36.076Z,62.00
2018-09-08T00:23:45.131Z,62.10
2018-09-08T00:24:54.270Z,62.30
2018-09-08T00:26:03.348Z,61.80
2018-09-08T00:27:06.183Z,62.40
2018-09-08T00:28:15.677Z,62.00
2018-09-08T00:29:23.361Z,62.00
2018-09-08T00:30:26.813Z,62.10
2018-09-08T00:31:30.270Z,62.00
2018-09-08T00:32:34.278Z,61.60
2018-09-08T00:33:37.760Z,61.00
2018-09-08T00:34:41.753Z,62.20
2018-09-08T00:35:45.151Z,61.30
2018-09-08T00:36:48.674Z,61.30
2018-09-08T00:37:52.053Z,61.20
2018-09-08T00:38:55.547Z,62.20
2018-09-08T00:39:59.007Z,61.70
2018-09-08T00:41:02.371Z,61.80
2018-09-08T00:42:05.870Z,61.90
2018-09-08T00:43:09.356Z,61.60
2018-09-08T00:44:12.666Z,62.10
2018-09-08T00:45:16.053Z,61.50
2018-09-08T00:46:19.476Z,61.40
2018-09-08T00:47:22.908Z,61.30
2018-09-08T00:48:26.413Z,61.40
2018-09-08T00:49:29.733Z,61.90
2018-09-08T00:50:33.060Z,62.70
2018-09-08T00:51:36.417Z,62.00
2018-09-08T00:52:39.718Z,62.00
2018-09-08T00:53:43.125Z,61.80
2018-09-08T00:54:46.711Z,61.70
2018-09-08T00:55:50.145Z,61.40
2018-09-08T00:56:53.502Z,61.00
2018-09-08T00:57:56.876Z,61.50
2018-09-08T00:59:02.838Z,61.00
2018-09-08T01:00:06.567Z,60.80
2018-09-08T01:01:10.126Z,61.00
2018-09-08T01:02:13.488Z,61.40
2018-09-08T01:03:17.111Z,61.00
2018-09-08T01:04:20.538Z,61.40
2018-09-08T01:05:23.977Z,61.30
2018-09-08T01:06:27.514Z,61.30
2018-09-08T01:07:31.620Z,61.70
2018-09-08T01:08:35.000Z,61.60
2018-09-08T01:09:38.422Z,61.60
2018-09-08T01:10:41.748Z,61.60
2018-09-08T01:11:45.263Z,61.50
2018-09-08T01:12:48.669Z,60.60
2018-09-08T01:13:52.230Z,61.50
2018-09-08T01:14:55.714Z,61.10
2018-09-08T01:15:59.035Z,62.70
2018-09-08T01:17:02.490Z,62.00
2018-09-08T01:18:06.214Z,61.10
2018-09-08T01:19:09.732Z,61.40
2018-09-08T01:20:13.172Z,61.20
2018-09-08T01:21:16.550Z,61.60
2018-09-08T01:22:20.142Z,61.30
2018-09-08T01:23:23.535Z,61.40
2018-09-08T01:24:27.080Z,61.90
2018-09-08T01:25:30.466Z,62.00
2018-09-08T01:26:34.022Z,61.90
2018-09-08T01:27:37.614Z,62.00
2018-09-08T01:28:41.038Z,62.10
2018-09-08T01:29:44.540Z,62.40
2018-09-08T01:30:48.071Z,62.20
2018-09-08T01:31:51.501Z,61.80
2018-09-08T01:32:54.824Z,62.00
2018-09-08T01:33:58.616Z,61.60
2018-09-08T01:35:02.389Z,61.70
2018-09-08T01:36:06.416Z,61.80
2018-09-08T01:37:09.838Z,62.80
2018-09-08T01:38:13.425Z,62.90
2018-09-08T01:39:17.152Z,61.90
2018-09-08T01:40:20.517Z,61.80
2018-09-08T01:41:23.886Z,61.80
2018-09-08T01:42:27.272Z,61.90
2018-09-08T01:43:30.931Z,62.50
2018-09-08T01:44:34.414Z,62.50
2018-09-08T01:45:37.743Z,62.50
2018-09-08T01:46:41.092Z,62.70
2018-09-08T01:47:44.453Z,62.70
2018-09-08T01:48:47.959Z,63.00
2018-09-08T01:49:51.330Z,62.80
2018-09-08T01:50:55.426Z,64.30
2018-09-08T01:51:59.089Z,63.40
2018-09-08T01:53:02.571Z,62.60
2018-09-08T01:54:06.350Z,63.10
2018-09-08T01:55:09.684Z,63.50
2018-09-08T01:56:13.413Z,62.90
2018-09-08T01:57:16.959Z,62.60
2018-09-08T01:58:20.476Z,63.20
2018-09-08T01:59:23.784Z,63.10
2018-09-08T02:00:27.183Z,63.60
2018-09-08T02:01:30.641Z,63.50
2018-09-08T02:02:34.054Z,63.50
2018-09-08T02:03:37.520Z,63.30
2018-09-08T02:04:40.985Z,63.90
2018-09-08T02:05:44.432Z,63.90
2018-09-08T02:06:47.892Z,64.00
2018-09-08T02:07:51.266Z,64.30
2018-09-08T02:08:54.795Z,63.50
2018-09-08T02:09:58.153Z,63.20
2018-09-08T02:11:01.512Z,63.30
2018-09-08T02:12:04.988Z,63.50
2018-09-08T02:13:08.344Z,63.10
2018-09-08T02:14:11.753Z,63.60
2018-09-08T02:15:15.178Z,63.70
2018-09-08T02:16:19.004Z,63.60
2018-09-08T02:17:22.528Z,63.70
2018-09-08T02:18:26.285Z,64.10
2018-09-08T02:19:29.751Z,64.00
2018-09-08T02:20:33.162Z,64.20
2018-09-08T02:21:36.641Z,64.20
2018-09-08T02:22:40.010Z,64.30
2018-09-08T02:23:43.415Z,64.30
2018-09-08T02:24:46.781Z,64.90
2018-09-08T02:25:50.438Z,64.40
2018-09-08T02:26:53.938Z,64.70
2018-09-08T02:27:57.398Z,64.80
2018-09-08T02:29:00.941Z,64.80
2018-09-08T02:30:05.993Z,64.90
2018-09-08T02:31:09.329Z,65.40
2018-09-08T02:32:12.892Z,65.70
2018-09-08T02:33:16.374Z,65.10
2018-09-08T02:34:20.019Z,65.10
2018-09-08T02:35:23.487Z,65.00
2018-09-08T02:36:26.874Z,64.90
2018-09-08T02:37:30.265Z,65.80
2018-09-08T02:38:33.592Z,64.50
2018-09-08T02:39:36.974Z,64.90
2018-09-08T02:40:40.384Z,64.80
2018-09-08T02:41:43.700Z,65.10
2018-09-08T02:42:47.059Z,65.30
2018-09-08T02:43:50.851Z,65.10
2018-09-08T02:44:54.297Z,65.40
2018-09-08T02:45:57.734Z,65.20
2018-09-08T02:47:01.202Z,66.10
2018-09-08T02:48:04.750Z,65.60
2018-09-08T02:49:08.190Z,65.80
2018-09-08T02:50:39.000Z,65.80
2018-09-08T02:51:40.632Z,66.10
2018-09-08T02:52:42.208Z,66.60
2018-09-08T02:53:43.845Z,66.40
2018-09-08T02:54:45.533Z,66.40
2018-09-08T02:55:47.181Z,67.30
2018-09-08T02:56:48.872Z,67.00
2018-09-08T02:57:50.475Z,67.10
2018-09-08T02:58:52.072Z,66.60
2018-09-08T02:59:53.804Z,66.50
2018-09-08T03:00:55.447Z,67.40
2018-09-08T03:01:57.216Z,66.50
2018-09-08T03:02:58.833Z,66.40
2018-09-08T03:04:00.472Z,66.50
2018-09-08T03:05:02.308Z,67.10
2018-09-08T03:06:03.967Z,66.90
2018-09-08T03:07:11.328Z,66.70
2018-09-08T03:08:12.941Z,67.30
2018-09-08T03:09:14.594Z,67.30
2018-09-08T03:10:16.943Z,67.40
2018-09-08T03:11:18.590Z,67.30
2018-09-08T03:12:20.224Z,67.80
2018-09-08T03:13:22.078Z,67.20
2018-09-08T03:14:23.828Z,67.40
2018-09-08T03:15:25.663Z,68.00
2018-09-08T03:16:27.306Z,68.10
2018-09-08T03:17:28.955Z,67.90
2018-09-08T03:18:30.749Z,68.00
2018-09-08T03:19:32.359Z,68.10
2018-09-08T03:20:33.996Z,67.90
2018-09-08T03:21:35.660Z,68.00
2018-09-08T03:22:37.281Z,68.40
2018-09-08T03:23:39.054Z,68.00
2018-09-08T03:24:40.679Z,68.40
2018-09-08T03:25:42.321Z,68.60
2018-09-08T03:26:43.945Z,68.50
2018-09-08T03:27:45.763Z,68.90
2018-09-08T03:28:47.558Z,68.90
2018-09-08T03:29:49.362Z,68.80
2018-09-08T03:30:50.981Z,69.00
2018-09-08T03:31:52.661Z,68.60
2018-09-08T03:32:54.253Z,69.20
2018-09-08T03:33:55.947Z,68.70
2018-09-08T03:34:57.546Z,68.90
2018-09-08T03:35:59.245Z,68.90
2018-09-08T03:37:00.877Z,68.90
2018-09-08T03:38:02.485Z,68.90
2018-09-08T03:39:04.856Z,68.90
2018-09-08T03:40:06.485Z,68.90
2018-09-08T03:41:08.068Z,69.00
2018-09-08T03:42:09.720Z,69.20
2018-09-08T03:43:11.387Z,69.40
2018-09-08T03:44:13.132Z,70.00
2018-09-08T03:45:14.762Z,69.30
2018-09-08T03:46:16.401Z,69.30
2018-09-08T03:47:18.005Z,69.40
2018-09-08T03:48:19.600Z,69.20
2018-09-08T03:49:21.360Z,69.10
2018-09-08T03:50:22.957Z,69.30
2018-09-08T03:51:24.577Z,70.10
2018-09-08T03:52:26.339Z,69.80
2018-09-08T03:53:27.967Z,69.50
2018-09-08T03:54:29.704Z,70.30
2018-09-08T03:55:31.466Z,69.50
2018-09-08T03:56:33.172Z,69.70
2018-09-08T03:57:34.821Z,69.10
2018-09-08T03:58:36.418Z,69.10
2018-09-08T03:59:38.127Z,69.10
2018-09-08T04:00:39.734Z,69.40
2018-09-08T04:01:41.437Z,69.20
2018-09-08T04:02:44.997Z,69.40
2018-09-08T04:03:48.830Z,69.30
2018-09-08T04:04:52.250Z,69.20
2018-09-08T04:05:55.778Z,69.60
2018-09-08T04:06:59.189Z,69.50
2018-09-08T04:08:02.540Z,69.70
2018-09-08T04:09:09.582Z,69.80
2018-09-08T04:10:13.041Z,69.50
2018-09-08T04:11:16.902Z,69.20
2018-09-08T04:12:20.334Z,69.60
2018-09-08T04:13:23.752Z,69.50
2018-09-08T04:14:27.093Z,69.40
2018-09-08T04:15:30.433Z,70.10
2018-09-08T04:16:33.803Z,69.50
2018-09-08T04:17:37.164Z,69.10
2018-09-08T04:18:40.963Z,69.50
2018-09-08T04:19:44.351Z,69.30
2018-09-08T04:20:47.976Z,70.20
2018-09-08T04:21:52.073Z,70.00
2018-09-08T04:22:55.754Z,69.60
2018-09-08T04:23:59.425Z,69.50
2018-09-08T04:25:04.215Z,69.80
2018-09-08T04:26:07.866Z,69.70
2018-09-08T04:27:11.289Z,70.40
2018-09-08T04:28:15.325Z,70.00
2018-09-08T04:29:18.725Z,70.10
2018-09-08T04:30:22.140Z,70.60
2018-09-08T04:31:25.480Z,71.00
2018-09-08T04:32:29.008Z,70.90
2018-09-08T04:33:32.941Z,70.40
2018-09-08T04:34:36.255Z,70.20
2018-09-08T04:35:39.641Z,70.40
2018-09-08T04:36:43.022Z,70.30
2018-09-08T04:37:46.633Z,70.40
2018-09-08T04:38:50.279Z,70.30
2018-09-08T04:39:53.954Z,70.90
2018-09-08T04:40:57.412Z,70.60
2018-09-08T04:42:00.906Z,70.80
2018-09-08T04:43:04.423Z,70.80
2018-09-08T04:44:07.874Z,70.80
2018-09-08T04:45:11.305Z,71.10
2018-09-08T04:46:14.754Z,70.80
2018-09-08T04:47:18.075Z,70.40
2018-09-08T04:48:21.558Z,70.30
2018-09-08T04:49:24.997Z,70.80
2018-09-08T04:50:28.427Z,70.60
2018-09-08T04:51:31.894Z,70.40
2018-09-08T04:52:35.247Z,71.10
2018-09-08T04:53:38.686Z,70.50
2018-09-08T04:54:42.006Z,70.50
2018-09-08T04:55:45.463Z,70.90
2018-09-08T04:56:48.760Z,70.70
2018-09-08T04:57:52.415Z,70.80
2018-09-08T04:58:56.024Z,70.50
2018-09-08T04:59:59.497Z,70.50
2018-09-08T05:01:02.871Z,70.30
2018-09-08T05:02:06.359Z,70.70
2018-09-08T05:03:09.861Z,70.60
2018-09-08T05:04:13.249Z,70.90
2018-09-08T05:05:16.882Z,70.70
2018-09-08T05:06:20.305Z,70.60
2018-09-08T05:07:23.576Z,70.60
2018-09-08T05:08:26.955Z,70.70
2018-09-08T05:09:30.330Z,70.40
2018-09-08T05:10:33.928Z,70.30
2018-09-08T05:11:37.576Z,70.60
2018-09-08T05:12:40.930Z,70.50
2018-09-08T05:13:44.333Z,70.50
2018-09-08T05:14:47.801Z,70.70
2018-09-08T05:15:51.480Z,70.70
2018-09-08T05:16:54.864Z,70.60
2018-09-08T05:17:58.256Z,70.70
2018-09-08T05:19:01.586Z,70.50
2018-09-08T05:20:06.046Z,70.80
2018-09-08T05:21:09.365Z,71.50
2018-09-08T05:22:12.766Z,70.80
2018-09-08T05:23:16.243Z,70.50
2018-09-08T05:24:19.676Z,70.90
2018-09-08T05:25:23.044Z,70.70
2018-09-08T05:26:26.436Z,70.90
2018-09-08T05:27:29.857Z,70.30
2018-09-08T05:28:33.215Z,70.30
2018-09-08T05:29:36.516Z,70.40
2018-09-08T05:30:39.920Z,70.40
2018-09-08T05:31:43.259Z,70.50
2018-09-08T05:32:46.628Z,70.70
2018-09-08T05:33:50.087Z,70.30
2018-09-08T05:34:53.857Z,70.30
2018-09-08T05:35:57.223Z,70.20
2018-09-08T05:37:00.817Z,70.70
2018-09-08T05:38:04.228Z,70.80
2018-09-08T05:39:08.079Z,70.80
2018-09-08T05:40:11.479Z,70.50
2018-09-08T05:41:14.805Z,70.40
2018-09-08T05:42:18.173Z,70.50
2018-09-08T05:43:21.588Z,70.60
2018-09-08T05:44:25.313Z,70.60
2018-09-08T05:45:28.664Z,70.40
2018-09-08T05:46:32.286Z,70.50
2018-09-08T05:47:35.656Z,71.00
2018-09-08T05:48:39.049Z,70.80
2018-09-08T05:49:42.386Z,70.50
2018-09-08T05:50:45.730Z,70.60
2018-09-08T05:51:49.336Z,70.50
2018-09-08T05:52:52.808Z,70.40
2018-09-08T05:53:56.420Z,70.40
2018-09-08T05:55:00.000Z,70.50
2018-09-08T05:56:03.724Z,70.30
2018-09-08T05:57:07.657Z,70.10
2018-09-08T05:58:11.057Z,70.60
2018-09-08T05:59:14.609Z,70.10
2018-09-08T06:00:18.308Z,70.10
2018-09-08T06:01:21.884Z,70.30
2018-09-08T06:02:25.414Z,69.90
2018-09-08T06:03:28.902Z,69.80
2018-09-08T06:04:32.327Z,70.00
2018-09-08T06:05:35.612Z,70.70
2018-09-08T06:06:39.352Z,70.30
2018-09-08T06:07:42.947Z,70.70
2018-09-08T06:08:46.373Z,71.00
2018-09-08T06:09:49.847Z,70.20
2018-09-08T06:10:53.224Z,70.90
2018-09-08T06:11:56.682Z,70.70
2018-09-08T06:13:00.152Z,70.50
2018-09-08T06:14:03.849Z,71.00
2018-09-08T06:15:07.392Z,70.50
2018-09-08T06:16:11.374Z,70.50
2018-09-08T06:17:14.764Z,71.30
2018-09-08T06:18:18.485Z,70.40
2018-09-08T06:19:22.119Z,70.10
2018-09-08T06:20:25.792Z,70.00
2018-09-08T06:21:29.610Z,70.50
2018-09-08T06:22:33.154Z,70.40
2018-09-08T06:23:36.713Z,70.50
2018-09-08T06:24:40.679Z,70.60
2018-09-08T06:25:44.520Z,70.10
2018-09-08T06:26:48.215Z,70.30
2018-09-08T06:27:51.732Z,70.30
2018-09-08T06:28:55.389Z,70.10
2018-09-08T06:29:58.953Z,70.30
2018-09-08T06:31:02.518Z,70.10
2018-09-08T06:32:06.033Z,70.30
2018-09-08T06:33:09.506Z,70.40
2018-09-08T06:34:12.876Z,70.10
2018-09-08T06:35:16.362Z,70.50
2018-09-08T06:36:19.700Z,70.40
2018-09-08T06:37:23.171Z,69.80
2018-09-08T06:38:26.780Z,69.60
2018-09-08T06:39:30.301Z,69.90
2018-09-08T06:40:34.073Z,69.70
2018-09-08T06:41:37.528Z,69.50
2018-09-08T06:42:40.890Z,69.50
2018-09-08T06:43:44.282Z,69.70
2018-09-08T06:44:47.667Z,69.30
2018-09-08T06:45:51.052Z,68.90
2018-09-08T06:46:54.620Z,69.10
2018-09-08T06:47:57.986Z,69.30
2018-09-08T06:49:01.845Z,69.50
2018-09-08T06:50:05.425Z,69.00
2018-09-08T06:51:08.985Z,69.00
2018-09-08T06:52:12.360Z,69.40
2018-09-08T06:53:15.735Z,69.50
2018-09-08T06:54:19.099Z,69.50
2018-09-08T06:55:22.528Z,69.00
2018-09-08T06:56:26.311Z,69.90
2018-09-08T06:57:29.776Z,69.10
2018-09-08T06:58:33.274Z,69.30
2018-09-08T06:59:36.865Z,69.60
2018-09-08T07:00:40.558Z,69.60
2018-09-08T07:01:44.186Z,68.70
2018-09-08T07:02:47.649Z,69.00
2018-09-08T07:03:51.162Z,69.00
2018-09-08T07:04:54.693Z,68.90
2018-09-08T07:05:58.133Z,68.80
2018-09-08T07:07:01.595Z,69.00
2018-09-08T07:08:05.029Z,69.00
2018-09-08T07:09:10.169Z,69.40
2018-09-08T07:10:13.485Z,68.60
2018-09-08T07:11:17.032Z,68.90
2018-09-08T07:12:20.426Z,69.10
2018-09-08T07:13:23.943Z,69.80
2018-09-08T07:14:27.551Z,68.80
2018-09-08T07:15:31.028Z,68.80
2018-09-08T07:16:34.764Z,69.10
2018-09-08T07:17:38.420Z,69.10
2018-09-08T07:18:41.752Z,69.00
2018-09-08T07:19:45.241Z,68.70
2018-09-08T07:20:48.745Z,68.20
2018-09-08T07:21:52.386Z,69.00
2018-09-08T07:22:55.889Z,68.60
2018-09-08T07:23:59.483Z,68.90
2018-09-08T07:25:03.118Z,68.20
2018-09-08T07:26:06.631Z,68.10
2018-09-08T07:27:10.113Z,68.30
2018-09-08T07:28:13.463Z,68.40
2018-09-08T07:29:16.932Z,68.90
2018-09-08T07:30:20.553Z,69.20
2018-09-08T07:31:23.957Z,69.20
2018-09-08T07:32:27.585Z,69.60
2018-09-08T07:33:30.915Z,70.00
2018-09-08T07:34:34.457Z,69.60
2018-09-08T07:35:37.952Z,69.30
2018-09-08T07:36:41.358Z,69.60
2018-09-08T07:37:44.776Z,69.50
2018-09-08T07:38:48.301Z,69.10
2018-09-08T07:39:51.642Z,68.80
2018-09-08T07:40:54.972Z,69.20
2018-09-08T07:41:58.417Z,69.50
2018-09-08T07:43:01.735Z,68.90
2018-09-08T07:44:05.516Z,69.70
2018-09-08T07:45:09.061Z,69.80
2018-09-08T07:46:12.483Z,69.20
2018-09-08T07:47:16.091Z,69.10
2018-09-08T07:48:19.533Z,68.60
2018-09-08T07:49:22.952Z,68.50
2018-09-08T07:50:26.773Z,68.40
2018-09-08T07:51:30.426Z,68.80
2018-09-08T07:52:33.714Z,68.80
2018-09-08T07:53:37.258Z,68.20
2018-09-08T07:54:40.594Z,68.90
2018-09-08T07:55:44.176Z,68.40
2018-09-08T07:56:47.616Z,68.50
2018-09-08T07:57:50.990Z,68.50
2018-09-08T07:58:54.414Z,68.60
2018-09-08T07:59:57.995Z,69.00
2018-09-08T08:01:01.443Z,68.80
2018-09-08T08:02:04.834Z,69.00
2018-09-08T08:03:08.156Z,69.10
2018-09-08T08:04:11.504Z,68.40
2018-09-08T08:05:14.893Z,68.80
2018-09-08T08:06:18.630Z,69.00
2018-09-08T08:07:21.979Z,69.30
2018-09-08T08:08:25.399Z,69.00
2018-09-08T08:09:28.817Z,69.00
2018-09-08T08:10:32.383Z,68.90
2018-09-08T08:11:36.175Z,68.60
2018-09-08T08:12:39.821Z,68.80
2018-09-08T08:13:43.159Z,69.20
2018-09-08T08:14:46.482Z,68.70
2018-09-08T08:15:49.828Z,68.40
2018-09-08T08:16:53.594Z,68.50
2018-09-08T08:17:57.105Z,68.70
2018-09-08T08:19:00.551Z,68.00
2018-09-08T08:20:04.413Z,68.20
2018-09-08T08:21:07.885Z,68.10
2018-09-08T08:22:11.401Z,68.10
2018-09-08T08:23:14.769Z,68.20
2018-09-08T08:24:18.146Z,68.00
2018-09-08T08:25:21.493Z,67.90
2018-09-08T08:26:24.833Z,67.70
2018-09-08T08:27:28.292Z,67.70
2018-09-08T08:28:31.908Z,68.00
2018-09-08T08:29:35.314Z,68.40
2018-09-08T08:30:38.798Z,68.20
2018-09-08T08:31:42.206Z,68.50
2018-09-08T08:32:45.548Z,67.90
2018-09-08T08:33:48.889Z,67.50
2018-09-08T08:34:52.264Z,67.70
2018-09-08T08:35:55.693Z,67.40
2018-09-08T08:36:59.633Z,67.70
2018-09-08T08:38:03.184Z,68.20
2018-09-08T08:39:08.690Z,67.80
2018-09-08T08:40:12.076Z,67.90
2018-09-08T08:41:15.520Z,67.30
2018-09-08T08:42:19.243Z,67.70
2018-09-08T08:43:23.252Z,67.10
2018-09-08T08:44:27.907Z,67.40
2018-09-08T08:45:31.399Z,67.00
2018-09-08T08:46:35.436Z,66.60
2018-09-08T08:47:38.898Z,66.90
2018-09-08T08:48:42.357Z,67.80
2018-09-08T08:49:59.634Z,67.30
2018-09-08T08:51:19.942Z,67.30
2018-09-08T08:52:40.086Z,66.50
2018-09-08T08:54:00.288Z,67.40
2018-09-08T08:55:01.973Z,67.20
2018-09-08T08:56:05.485Z,65.80
2018-09-08T08:57:09.153Z,64.90
2018-09-08T08:58:12.851Z,64.70
2018-09-08T08:59:16.541Z,64.50
2018-09-08T09:00:19.993Z,65.60
2018-09-08T09:01:23.438Z,66.00
2018-09-08T09:02:27.002Z,65.40
2018-09-08T09:03:30.433Z,66.00
2018-09-08T09:04:34.052Z,64.70
2018-09-08T09:05:37.380Z,64.70
2018-09-08T09:06:40.961Z,66.00
2018-09-08T09:07:44.644Z,63.50
2018-09-08T09:08:48.498Z,64.20
2018-09-08T09:09:51.773Z,64.30
2018-09-08T09:10:55.062Z,63.90
2018-09-08T09:11:58.612Z,64.30
2018-09-08T09:13:02.070Z,64.10
2018-09-08T09:14:05.928Z,63.80
2018-09-08T09:15:09.706Z,64.10
2018-09-08T09:16:12.850Z,63.40
2018-09-08T09:17:16.541Z,63.70
2018-09-08T09:18:38.384Z,63.50
2018-09-08T09:19:58.173Z,63.70
2018-09-08T09:21:18.674Z,63.70
2018-09-08T09:22:39.465Z,64.10
2018-09-08T09:24:54.840Z,63.80
2018-09-08T09:25:58.200Z,63.70
2018-09-08T09:27:01.606Z,64.10
2018-09-08T09:28:04.972Z,64.40
2018-09-08T09:29:08.996Z,63.00
2018-09-08T09:30:13.008Z,63.20
2018-09-08T09:31:16.514Z,62.30
2018-09-08T09:32:20.481Z,62.20
2018-09-08T09:33:24.066Z,61.30
2018-09-08T09:34:27.535Z,60.80
2018-09-08T09:35:31.104Z,60.80
2018-09-08T09:36:34.676Z,62.60
2018-09-08T09:37:38.031Z,61.70
2018-09-08T09:38:41.493Z,61.30
2018-09-08T09:39:45.311Z,61.10
2018-09-08T09:40:48.863Z,60.40
2018-09-08T09:41:52.176Z,61.90
2018-09-08T09:42:55.537Z,60.40
2018-09-08T09:43:59.057Z,61.10
2018-09-08T09:45:02.592Z,60.70
2018-09-08T09:46:06.134Z,61.00
2018-09-08T09:47:09.511Z,60.50
2018-09-08T09:48:12.894Z,60.10
2018-09-08T09:49:16.343Z,60.70
2018-09-08T09:50:19.780Z,61.60
2018-09-08T09:51:23.348Z,59.40
2018-09-08T09:52:26.721Z,58.90
2018-09-08T09:53:30.217Z,58.80
2018-09-08T09:54:33.831Z,59.50
2018-09-08T09:55:37.330Z,61.10
2018-09-08T09:56:40.804Z,59.40
2018-09-08T09:57:45.762Z,59.30
2018-09-08T09:58:49.358Z,58.70
2018-09-08T09:59:52.741Z,58.90
2018-09-08T10:01:01.901Z,59.60
2018-09-08T10:02:11.269Z,59.60
2018-09-08T10:03:14.945Z,58.40
2018-09-08T10:04:18.318Z,58.80
2018-09-08T10:05:22.964Z,59.20
2018-09-08T10:06:26.511Z,58.20
2018-09-08T10:07:29.842Z,57.60
2018-09-08T10:08:33.392Z,57.30
2018-09-08T10:09:39.731Z,57.60
2018-09-08T10:10:43.973Z,57.10
2018-09-08T10:11:48.143Z,57.40
2018-09-08T10:12:52.057Z,56.70
2018-09-08T10:13:56.227Z,56.60
2018-09-08T10:14:59.935Z,56.00
2018-09-08T10:16:03.272Z,55.90
2018-09-08T10:17:06.696Z,55.80
2018-09-08T10:18:10.504Z,55.80
2018-09-08T10:19:13.996Z,56.30
2018-09-08T10:20:18.929Z,56.00
2018-09-08T10:21:22.504Z,56.70
2018-09-08T10:22:25.851Z,56.40
2018-09-08T10:23:29.410Z,56.30
2018-09-08T10:24:32.788Z,56.10
2018-09-08T10:25:36.188Z,56.70
2018-09-08T10:26:40.247Z,55.50
2018-09-08T10:27:44.395Z,56.70
2018-09-08T10:28:48.013Z,56.40
2018-09-08T10:29:52.338Z,56.40
2018-09-08T10:30:55.577Z,56.40
2018-09-08T10:31:59.045Z,56.60
2018-09-08T10:33:02.477Z,56.30
2018-09-08T10:34:06.144Z,56.00
2018-09-08T10:35:09.759Z,55.00
2018-09-08T10:36:13.214Z,54.90
2018-09-08T10:37:16.744Z,54.90
2018-09-08T10:38:20.437Z,53.20
2018-09-08T10:39:24.227Z,53.60
2018-09-08T10:40:27.625Z,53.00
2018-09-08T10:41:30.920Z,53.00
2018-09-08T10:42:34.251Z,53.80
2018-09-08T10:43:37.844Z,53.10
2018-09-08T10:44:41.511Z,53.30
2018-09-08T10:45:44.893Z,53.50
2018-09-08T10:46:48.267Z,52.60
2018-09-08T10:47:51.681Z,52.40
2018-09-08T10:48:55.328Z,50.90
2018-09-08T10:49:59.019Z,51.10
2018-09-08T10:52:15.736Z,51.90
2018-09-08T10:53:19.169Z,52.00
2018-09-08T10:54:24.446Z,53.20
2018-09-08T10:55:28.296Z,54.20
2018-09-08T10:56:31.881Z,53.00
2018-09-08T10:57:36.148Z,52.90
2018-09-08T10:58:39.797Z,52.30
2018-09-08T10:59:43.558Z,52.90
2018-09-08T11:00:47.174Z,52.00
2018-09-08T11:01:51.051Z,52.20
2018-09-08T11:02:55.059Z,52.60
2018-09-08T11:03:58.628Z,52.70
2018-09-08T11:05:02.801Z,50.90
2018-09-08T11:06:06.719Z,51.30
2018-09-08T11:07:11.433Z,51.60
2018-09-08T11:08:15.685Z,51.50
2018-09-08T11:09:19.405Z,52.00
2018-09-08T11:10:23.528Z,52.30
2018-09-08T11:11:28.123Z,52.20
2018-09-08T11:12:31.825Z,52.30
2018-09-08T11:13:35.762Z,52.00
2018-09-08T11:14:40.145Z,51.90
2018-09-08T11:15:43.913Z,52.70
2018-09-08T11:16:47.743Z,51.80
2018-09-08T11:17:51.480Z,50.90
2018-09-08T11:18:55.214Z,50.80
2018-09-08T11:19:59.650Z,50.30
2018-09-08T11:21:03.398Z,50.10
2018-09-08T11:22:08.184Z,50.20
2018-09-08T11:23:11.726Z,50.50
2018-09-08T11:24:16.032Z,51.20
2018-09-08T11:25:20.446Z,50.90
2018-09-08T11:26:24.399Z,50.70
2018-09-08T11:27:28.562Z,50.80
2018-09-08T11:28:32.093Z,51.00
2018-09-08T11:29:36.296Z,50.20
2018-09-08T11:30:40.532Z,50.10
2018-09-08T11:31:44.431Z,50.60
2018-09-08T11:32:48.141Z,49.40
2018-09-08T11:33:52.016Z,49.90
2018-09-08T11:34:55.472Z,49.80
2018-09-08T11:35:59.095Z,49.10
2018-09-08T11:37:02.847Z,49.80
2018-09-08T11:38:08.175Z,49.20
2018-09-08T11:39:12.226Z,49.50
2018-09-08T11:40:16.038Z,50.10
2018-09-08T11:41:20.596Z,49.80
2018-09-08T11:42:24.061Z,48.90
2018-09-08T11:43:28.315Z,50.10
2018-09-08T11:44:33.506Z,49.70
2018-09-08T11:45:38.450Z,49.30
2018-09-08T11:46:42.271Z,49.90
2018-09-08T11:47:46.175Z,49.00
2018-09-08T11:48:49.780Z,49.10
2018-09-08T11:49:53.434Z,49.20
2018-09-08T11:50:56.843Z,49.20
2018-09-08T11:52:00.578Z,49.90
2018-09-08T11:53:04.152Z,49.50
2018-09-08T11:54:07.736Z,49.80
2018-09-08T11:55:11.124Z,50.00
2018-09-08T11:56:14.774Z,51.10
2018-09-08T11:57:18.197Z,50.70
2018-09-08T11:58:21.813Z,50.10
2018-09-08T11:59:25.197Z,49.70
2018-09-08T12:00:28.964Z,50.40
2018-09-08T12:01:32.386Z,50.20
2018-09-08T12:02:35.904Z,49.90
2018-09-08T12:03:39.580Z,49.90
2018-09-08T12:04:43.171Z,49.70
2018-09-08T12:05:46.772Z,49.50
2018-09-08T12:06:50.233Z,49.50
2018-09-08T12:07:53.804Z,49.90
2018-09-08T12:08:57.444Z,50.00
2018-09-08T12:10:01.772Z,50.50
2018-09-08T12:11:06.067Z,51.00
2018-09-08T12:12:10.997Z,51.70
2018-09-08T12:13:15.254Z,51.70
2018-09-08T12:14:19.661Z,51.50
2018-09-08T12:15:24.247Z,52.40
2018-09-08T12:16:28.416Z,51.70
2018-09-08T12:17:32.554Z,49.90
2018-09-08T12:18:37.178Z,48.90
2018-09-08T12:19:41.284Z,48.50
2018-09-08T12:20:45.531Z,49.00
2018-09-08T12:21:50.061Z,48.60
2018-09-08T12:22:54.255Z,47.50
2018-09-08T12:23:58.648Z,46.70
2018-09-08T12:25:02.883Z,47.40
2018-09-08T12:26:07.856Z,47.50
2018-09-08T12:27:11.964Z,47.80
2018-09-08T12:28:15.925Z,47.20
2018-09-08T12:29:19.938Z,47.70
2018-09-08T12:30:24.211Z,48.70
2018-09-08T12:31:29.252Z,48.90
2018-09-08T12:32:33.829Z,49.00
2018-09-08T12:33:38.413Z,48.60
2018-09-08T12:34:42.622Z,48.90
2018-09-08T12:35:46.941Z,49.30
2018-09-08T12:36:50.483Z,49.60
2018-09-08T12:37:53.867Z,49.70
2018-09-08T12:38:57.381Z,49.90
2018-09-08T12:40:01.408Z,49.80
2018-09-08T12:41:05.036Z,50.20
2018-09-08T12:42:08.567Z,50.50
2018-09-08T12:43:12.365Z,50.80
2018-09-08T12:44:15.684Z,50.70
2018-09-08T12:45:19.249Z,50.90
2018-09-08T12:46:24.132Z,50.90
2018-09-08T12:47:29.593Z,50.10
2018-09-08T12:48:33.116Z,50.10
2018-09-08T12:49:36.645Z,50.10
2018-09-08T12:50:40.076Z,50.20
2018-09-08T12:51:43.439Z,50.80
2018-09-08T12:52:47.101Z,50.70
2018-09-08T12:53:50.815Z,50.50
2018-09-08T12:54:54.233Z,50.40
2018-09-08T12:55:58.550Z,50.00
2018-09-08T12:57:02.498Z,50.70
2018-09-08T12:58:06.574Z,49.60
2018-09-08T12:59:10.075Z,50.10
2018-09-08T13:00:13.718Z,49.40
2018-09-08T13:01:17.245Z,49.20
2018-09-08T13:02:20.666Z,49.50
2018-09-08T13:03:24.053Z,49.30
2018-09-08T13:04:27.490Z,49.60
2018-09-08T13:05:31.168Z,49.10
2018-09-08T13:06:34.664Z,48.50
2018-09-08T13:07:38.200Z,48.60
2018-09-08T13:08:41.590Z,48.70
2018-09-08T13:09:45.226Z,49.30
2018-09-08T13:10:48.735Z,49.80
2018-09-08T13:11:52.363Z,49.20
2018-09-08T13:12:55.850Z,48.30
2018-09-08T13:13:59.711Z,47.90
2018-09-08T13:15:03.245Z,47.10
2018-09-08T13:16:07.009Z,48.10
2018-09-08T13:17:10.531Z,47.60
2018-09-08T13:18:13.981Z,47.50
2018-09-08T13:19:17.489Z,48.00
2018-09-08T13:20:21.053Z,47.50
2018-09-08T13:21:24.650Z,47.30
2018-09-08T13:22:28.126Z,46.70
2018-09-08T13:23:31.691Z,46.60
2018-09-08T13:24:35.245Z,47.00
2018-09-08T13:25:38.648Z,47.50
2018-09-08T13:26:42.060Z,47.40
2018-09-08T13:27:45.921Z,47.10
2018-09-08T13:28:49.541Z,48.20
2018-09-08T13:29:53.137Z,47.40
2018-09-08T13:30:56.564Z,47.50
2018-09-08T13:32:00.088Z,47.70
2018-09-08T13:33:03.567Z,48.40
2018-09-08T13:34:07.297Z,48.70
2018-09-08T13:35:11.036Z,48.80
2018-09-08T13:36:14.571Z,47.70
2018-09-08T13:37:18.028Z,47.80
2018-09-08T13:38:21.492Z,47.10
2018-09-08T13:39:25.250Z,46.10
2018-09-08T13:40:28.564Z,45.60
2018-09-08T13:41:31.924Z,45.90
2018-09-08T13:42:35.421Z,46.00
2018-09-08T13:43:39.053Z,45.30